createdAt,value
2023-01-18T00:01:07.042Z,97913.31
2023-01-18T00:03:54.116Z,97906.47
2023-01-18T00:06:41.456Z,97937.69
2023-01-18T00:09:28.346Z,97936.16
2023-01-18T00:12:15.197Z,97929.75
2023-01-18T00:15:02.654Z,97936.09
2023-01-18T00:17:51.772Z,97913.63
2023-01-18T00:20:39.225Z,97915.22
2023-01-18T00:23:25.767Z,97926.75
2023-01-18T00:26:13.250Z,97928.25
2023-01-18T00:28:59.688Z,97942.44
2023-01-18T00:31:48.513Z,97947.25
2023-01-18T00:34:37.407Z,97940.03
2023-01-18T00:37:26.944Z,97936.09
2023-01-18T00:40:13.546Z,97967.59
2023-01-18T00:43:19.247Z,97955.03
2023-01-18T00:46:07.887Z,97951.59
2023-01-18T00:48:55.504Z,97961.44
2023-01-18T00:51:41.364Z,97943.25
2023-01-18T00:54:28.117Z,97940.78
2023-01-18T00:57:14.442Z,97903.16
2023-01-18T01:00:00.731Z,97953.25
2023-01-18T01:02:47.222Z,97935.41
2023-01-18T01:05:53.732Z,97945.00
2023-01-18T01:08:40.459Z,97964.06
2023-01-18T01:11:26.836Z,97947.28
2023-01-18T01:14:35.542Z,97951.59
2023-01-18T01:17:40.605Z,97968.47
2023-01-18T01:20:46.023Z,97947.13
2023-01-18T01:23:51.586Z,97973.78
2023-01-18T01:26:38.136Z,97968.47
2023-01-18T01:29:23.964Z,97928.66
2023-01-18T01:32:10.373Z,97952.72
2023-01-18T01:34:56.213Z,97943.34
2023-01-18T01:37:42.710Z,97949.75
2023-01-18T01:40:28.563Z,97944.44
2023-01-18T01:43:15.811Z,97954.03
2023-01-18T01:46:02.717Z,97897.13
2023-01-18T01:48:49.974Z,97910.69
2023-01-18T01:51:38.633Z,97936.78
2023-01-18T01:54:34.955Z,97944.72
2023-01-18T01:57:38.426Z,97938.53
2023-01-18T02:00:26.386Z,97940.44
2023-01-18T02:03:18.175Z,97921.25
2023-01-18T02:06:19.457Z,97872.38
2023-01-18T02:09:10.365Z,97862.41
2023-01-18T02:11:57.028Z,97911.44
2023-01-18T02:14:43.405Z,97903.81
2023-01-18T02:17:49.630Z,97883.75
2023-01-18T02:20:45.121Z,97889.56
2023-01-18T02:23:44.056Z,97864.16
2023-01-18T02:26:54.062Z,97842.22
2023-01-18T02:29:52.669Z,97844.03
2023-01-18T02:32:52.079Z,97874.56
2023-01-18T02:35:59.222Z,97875.56
2023-01-18T02:38:45.968Z,97865.63
2023-01-18T02:42:04.682Z,97873.81
2023-01-18T02:45:09.654Z,97890.13
2023-01-18T02:47:56.554Z,97876.44
2023-01-18T02:50:42.689Z,97882.97
2023-01-18T02:53:30.671Z,97863.00
2023-01-18T02:56:22.584Z,97885.00
2023-01-18T02:59:11.706Z,97898.69
2023-01-18T03:02:01.678Z,97895.09
2023-01-18T03:04:56.018Z,97855.84
2023-01-18T03:07:48.548Z,97889.72
2023-01-18T03:10:36.117Z,97885.94
2023-01-18T03:13:40.903Z,97897.94
2023-01-18T03:16:40.983Z,97904.59
2023-01-18T03:20:04.224Z,97898.53
2023-01-18T03:23:18.920Z,97906.00
2023-01-18T03:26:07.411Z,97908.91
2023-01-18T03:29:15.213Z,97855.84
2023-01-18T03:32:32.637Z,97877.34
2023-01-18T03:35:19.569Z,97906.34
2023-01-18T03:38:10.524Z,97875.97
2023-01-18T03:41:00.144Z,97868.09
2023-01-18T03:43:46.815Z,97890.78
2023-01-18T03:46:34.414Z,97899.66
2023-01-18T03:49:21.083Z,97898.56
2023-01-18T03:52:16.113Z,97897.38
2023-01-18T03:55:21.665Z,97893.81
2023-01-18T03:58:13.668Z,97860.03
2023-01-18T04:01:00.159Z,97872.31
2023-01-18T04:03:47.106Z,97874.91
2023-01-18T04:06:34.786Z,97838.41
2023-01-18T04:09:21.263Z,97901.81
2023-01-18T04:12:07.142Z,97866.56
2023-01-18T04:14:58.335Z,97897.34
2023-01-18T04:17:44.127Z,97879.25
2023-01-18T04:20:30.499Z,97904.03
2023-01-18T04:23:16.615Z,97870.69
2023-01-18T04:26:03.396Z,97871.28
2023-01-18T04:28:50.054Z,97904.81
2023-01-18T04:31:36.493Z,97899.53
2023-01-18T04:34:23.358Z,97923.72
2023-01-18T04:37:10.003Z,97851.19
2023-01-18T04:39:55.583Z,97897.16
2023-01-18T04:42:42.587Z,97890.66
2023-01-18T04:45:28.955Z,97914.16
2023-01-18T04:48:15.156Z,97911.97
2023-01-18T04:51:01.677Z,97914.56
2023-01-18T04:53:49.234Z,97910.78
2023-01-18T04:56:34.924Z,97888.00
2023-01-18T04:59:21.596Z,97827.59
2023-01-18T05:02:09.340Z,97911.47
2023-01-18T05:04:56.762Z,97863.22
2023-01-18T05:07:43.996Z,97903.28
2023-01-18T05:10:34.569Z,97881.72
2023-01-18T05:13:27.434Z,97883.34
2023-01-18T05:16:16.657Z,97898.09
2023-01-18T05:19:02.591Z,97907.66
2023-01-18T05:21:50.335Z,97915.88
2023-01-18T05:24:37.877Z,97894.41
2023-01-18T05:27:25.345Z,97846.06
2023-01-18T05:30:14.533Z,97909.59
2023-01-18T05:33:03.767Z,97913.06
2023-01-18T05:35:51.095Z,97909.09
2023-01-18T05:38:40.674Z,97900.88
2023-01-18T05:41:32.332Z,97887.88
2023-01-18T05:44:20.272Z,97793.75
2023-01-18T05:47:09.226Z,97875.19
2023-01-18T05:50:02.044Z,97914.84
2023-01-18T05:52:50.879Z,97919.25
2023-01-18T05:55:40.457Z,97915.44
2023-01-18T05:58:27.872Z,97918.97
2023-01-18T06:01:14.953Z,97916.53
2023-01-18T06:04:04.080Z,97922.16
2023-01-18T06:06:50.433Z,97914.81
2023-01-18T06:09:37.895Z,97936.22
2023-01-18T06:12:25.117Z,97870.00
2023-01-18T06:15:12.798Z,97863.00
2023-01-18T06:17:59.829Z,97907.19
2023-01-18T06:20:46.672Z,97881.50
2023-01-18T06:23:33.408Z,97932.03
2023-01-18T06:26:19.579Z,97848.38
2023-01-18T06:29:06.301Z,97923.66
2023-01-18T06:31:52.699Z,97919.06
2023-01-18T06:34:39.544Z,97879.22
2023-01-18T06:37:25.912Z,97895.63
2023-01-18T06:40:13.119Z,97856.97
2023-01-18T06:42:59.229Z,97825.72
2023-01-18T06:45:58.711Z,97919.25
2023-01-18T06:48:48.256Z,97899.50
2023-01-18T06:51:35.944Z,97888.03
2023-01-18T06:54:22.098Z,97847.47
2023-01-18T06:57:09.293Z,97910.69
2023-01-18T06:59:55.608Z,97879.03
2023-01-18T07:02:42.042Z,97904.50
2023-01-18T07:05:28.960Z,97877.03
2023-01-18T07:08:16.489Z,97842.41
2023-01-18T07:11:07.935Z,97880.75
2023-01-18T07:13:53.920Z,97892.50
2023-01-18T07:16:39.987Z,97933.44
2023-01-18T07:19:26.079Z,97906.28
2023-01-18T07:22:13.683Z,97854.09
2023-01-18T07:25:02.234Z,97910.47
2023-01-18T07:27:49.966Z,97914.28
2023-01-18T07:30:38.314Z,97907.09
2023-01-18T07:33:24.309Z,97883.44
2023-01-18T07:36:11.185Z,97876.94
2023-01-18T07:38:57.655Z,97929.03
2023-01-18T07:41:44.362Z,97919.94
2023-01-18T07:44:38.478Z,97900.00
2023-01-18T07:47:25.983Z,97922.75
2023-01-18T07:50:14.716Z,97897.38
2023-01-18T07:53:04.821Z,97863.97
2023-01-18T07:55:51.089Z,97878.50
2023-01-18T07:58:38.769Z,97899.56
2023-01-18T08:01:25.045Z,97890.88
2023-01-18T08:04:13.031Z,97787.44
2023-01-18T08:06:59.647Z,97847.78
2023-01-18T08:09:47.828Z,97885.97
2023-01-18T08:12:33.715Z,97879.72
2023-01-18T08:15:19.758Z,97874.91
2023-01-18T08:18:11.542Z,97878.28
2023-01-18T08:20:58.751Z,97912.34
2023-01-18T08:23:46.677Z,97902.66
2023-01-18T08:26:39.643Z,97899.44
2023-01-18T08:29:27.199Z,97895.66
2023-01-18T08:32:15.845Z,97898.53
2023-01-18T08:35:03.172Z,97856.16
2023-01-18T08:37:51.692Z,97810.25
2023-01-18T08:40:37.915Z,97923.88
2023-01-18T08:43:30.569Z,97840.97
2023-01-18T08:46:17.211Z,97892.06
2023-01-18T08:49:06.558Z,97932.47
2023-01-18T08:51:55.598Z,97913.00
2023-01-18T08:54:42.203Z,97892.47
2023-01-18T08:57:31.335Z,97896.63
2023-01-18T09:00:23.884Z,97904.13
2023-01-18T09:03:13.073Z,97900.94
2023-01-18T09:06:01.199Z,97895.66
2023-01-18T09:08:57.040Z,97913.69
2023-01-18T09:11:44.484Z,97901.22
2023-01-18T09:14:30.449Z,97911.28
2023-01-18T09:17:45.155Z,97915.41
2023-01-18T09:20:36.349Z,97891.84
2023-01-18T09:23:50.025Z,97877.78
2023-01-18T09:26:36.424Z,97874.69
2023-01-18T09:29:39.310Z,97926.88
2023-01-18T09:32:27.642Z,97938.59
2023-01-18T09:35:18.407Z,97888.97
2023-01-18T09:38:07.480Z,97861.94
2023-01-18T09:40:54.226Z,97911.25
2023-01-18T09:43:48.924Z,97916.25
2023-01-18T09:46:37.846Z,97919.94
2023-01-18T09:49:37.665Z,97919.13
2023-01-18T09:52:49.191Z,97919.81
2023-01-18T09:55:48.896Z,97879.09
2023-01-18T09:58:47.137Z,97928.91
2023-01-18T10:01:35.704Z,97892.69
2023-01-18T10:04:39.446Z,97889.50
2023-01-18T10:07:28.096Z,97904.75
2023-01-18T10:10:19.058Z,97853.69
2023-01-18T10:13:53.843Z,97914.94
2023-01-18T10:16:42.831Z,97833.94
2023-01-18T10:19:30.987Z,97926.72
2023-01-18T10:22:37.716Z,97831.22
2023-01-18T10:25:55.984Z,97939.22
2023-01-18T10:29:16.217Z,97925.72
2023-01-18T10:32:09.702Z,97882.53
2023-01-18T10:34:55.836Z,97933.22
2023-01-18T10:37:45.650Z,97872.66
2023-01-18T10:40:33.865Z,97824.44
2023-01-18T10:43:25.283Z,97882.94
2023-01-18T10:46:17.151Z,97901.28
2023-01-18T10:49:04.522Z,97864.06
2023-01-18T10:51:52.446Z,97930.63
2023-01-18T10:54:45.898Z,97823.44
2023-01-18T10:57:36.385Z,97888.13
2023-01-18T11:00:43.972Z,97898.69
2023-01-18T11:03:35.781Z,97915.19
2023-01-18T11:06:23.167Z,97808.47
2023-01-18T11:09:35.268Z,97875.94
2023-01-18T11:12:43.814Z,97881.53
2023-01-18T11:15:32.571Z,97910.91
2023-01-18T11:18:19.973Z,97895.59
2023-01-18T11:21:12.036Z,97884.13
2023-01-18T11:24:17.304Z,97861.38
2023-01-18T11:27:14.607Z,97874.03
2023-01-18T11:30:05.963Z,97834.31
2023-01-18T11:32:54.950Z,97938.75
2023-01-18T11:35:47.492Z,97826.44
2023-01-18T11:39:04.321Z,97836.91
2023-01-18T11:42:12.081Z,97833.72
2023-01-18T11:45:41.037Z,97947.63
2023-01-18T11:48:33.477Z,97941.44
2023-01-18T11:51:40.366Z,97849.97
2023-01-18T11:54:50.231Z,97930.06
2023-01-18T11:57:37.308Z,97919.16
2023-01-18T12:00:28.352Z,97927.75
2023-01-18T12:03:27.086Z,97833.22
2023-01-18T12:06:39.393Z,97898.28
2023-01-18T12:09:35.010Z,97927.47
2023-01-18T12:13:02.893Z,97949.44
2023-01-18T12:16:05.393Z,97884.63
2023-01-18T12:19:08.019Z,97959.81
2023-01-18T12:22:31.335Z,97954.13
2023-01-18T12:25:44.446Z,97969.91
2023-01-18T12:28:37.305Z,97980.38
2023-01-18T12:32:01.413Z,97961.69
2023-01-18T12:34:54.733Z,97960.09
2023-01-18T12:38:01.252Z,97925.75
2023-01-18T12:41:11.310Z,97975.69
2023-01-18T12:44:30.244Z,97986.59
2023-01-18T12:47:28.520Z,97941.31
2023-01-18T12:50:23.198Z,97938.94
2023-01-18T12:53:46.525Z,97987.69
2023-01-18T12:56:38.599Z,97922.66
2023-01-18T12:59:25.216Z,98006.25
2023-01-18T13:02:30.108Z,98017.84
2023-01-18T13:05:24.013Z,97994.97
2023-01-18T13:08:15.113Z,97997.16
2023-01-18T13:11:06.071Z,97996.94
2023-01-18T13:14:25.887Z,97972.16
2023-01-18T13:17:56.356Z,98015.94
2023-01-18T13:20:46.296Z,97994.84
2023-01-18T13:23:44.783Z,98024.72
2023-01-18T13:26:35.407Z,97985.03
2023-01-18T13:29:30.974Z,98017.72
2023-01-18T13:32:35.170Z,97973.66
2023-01-18T13:35:32.779Z,98026.63
2023-01-18T13:38:29.984Z,98005.44
2023-01-18T13:41:25.244Z,97904.44
2023-01-18T13:44:32.541Z,98011.56
2023-01-18T13:48:18.823Z,98027.22
2023-01-18T13:51:06.252Z,98017.13
2023-01-18T13:53:53.363Z,97996.06
2023-01-18T13:56:40.331Z,98035.72
2023-01-18T13:59:27.772Z,98029.53
2023-01-18T14:02:34.510Z,98039.00
2023-01-18T14:05:28.087Z,98023.63
2023-01-18T14:08:31.841Z,97969.19
2023-01-18T14:11:25.179Z,98050.91
2023-01-18T14:14:30.543Z,97930.47
2023-01-18T14:17:17.283Z,98061.59
2023-01-18T14:20:40.582Z,98044.72
2023-01-18T14:24:06.877Z,98069.19
2023-01-18T14:26:54.734Z,98062.31
2023-01-18T14:29:46.326Z,98070.00
2023-01-18T14:32:39.411Z,98085.69
2023-01-18T14:35:26.119Z,97977.44
2023-01-18T14:38:18.579Z,98077.41
2023-01-18T14:41:09.339Z,98016.81
2023-01-18T14:43:57.429Z,98047.19
2023-01-18T14:46:55.068Z,98080.91
2023-01-18T14:49:44.745Z,98078.50
2023-01-18T14:52:34.190Z,98089.69
2023-01-18T14:55:33.533Z,98040.50
2023-01-18T14:58:19.760Z,98080.47
2023-01-18T15:01:09.601Z,98062.28
2023-01-18T15:03:58.145Z,98065.56
2023-01-18T15:06:48.743Z,98102.38
2023-01-18T15:09:37.564Z,98123.19
2023-01-18T15:12:30.610Z,98118.38
2023-01-18T15:15:47.882Z,98115.66
2023-01-18T15:18:36.477Z,98141.66
2023-01-18T15:21:35.425Z,98145.91
2023-01-18T15:24:25.018Z,98148.16
2023-01-18T15:27:18.605Z,98127.69
2023-01-18T15:30:13.875Z,98146.97
2023-01-18T15:33:02.492Z,98157.94
2023-01-18T15:35:58.958Z,98153.47
2023-01-18T15:38:45.696Z,98178.28
2023-01-18T15:41:36.360Z,98192.97
2023-01-18T15:44:43.834Z,98176.66
2023-01-18T15:47:36.859Z,98189.59
2023-01-18T15:50:27.422Z,98198.97
2023-01-18T15:53:30.276Z,98202.16
2023-01-18T15:56:41.551Z,98207.06
2023-01-18T15:59:28.871Z,98231.88
2023-01-18T16:02:21.196Z,98224.06
2023-01-18T16:05:22.352Z,98234.88
2023-01-18T16:08:18.762Z,98235.16
2023-01-18T16:11:29.152Z,98245.16
2023-01-18T16:14:28.137Z,98242.97
2023-01-18T16:17:23.924Z,98246.25
2023-01-18T16:20:16.634Z,98254.28
2023-01-18T16:23:09.410Z,98256.66
2023-01-18T16:26:04.224Z,98255.06
2023-01-18T16:28:53.502Z,98228.34
2023-01-18T16:31:43.076Z,98259.94
2023-01-18T16:34:30.561Z,98259.34
2023-01-18T16:37:18.474Z,98264.75
2023-01-18T16:40:10.380Z,98245.91
2023-01-18T16:43:30.993Z,98285.06
2023-01-18T16:46:19.749Z,98286.66
2023-01-18T16:49:12.719Z,98277.41
2023-01-18T16:52:14.316Z,98296.66
2023-01-18T16:55:04.453Z,98300.44
2023-01-18T16:57:52.711Z,98305.25
2023-01-18T17:01:18.667Z,98296.22
2023-01-18T17:04:10.382Z,98312.75
2023-01-18T17:06:58.393Z,98314.34
2023-01-18T17:09:49.214Z,98321.97
2023-01-18T17:12:35.785Z,98244.31
2023-01-18T17:15:28.116Z,98328.75
2023-01-18T17:18:25.807Z,98331.75
2023-01-18T17:21:15.643Z,98330.22
2023-01-18T17:24:04.867Z,98337.53
2023-01-18T17:27:00.743Z,98348.09
2023-01-18T17:29:48.731Z,98340.66
2023-01-18T17:32:37.904Z,98350.38
2023-01-18T17:35:25.066Z,98362.25
2023-01-18T17:38:17.299Z,98367.56
2023-01-18T17:41:16.583Z,98368.66
2023-01-18T17:44:03.466Z,98367.34
2023-01-18T17:46:49.296Z,98368.66
2023-01-18T17:49:35.180Z,98370.78
2023-01-18T17:52:20.944Z,98355.53
2023-01-18T17:55:08.693Z,98342.72
2023-01-18T17:57:55.522Z,98364.88
2023-01-18T18:00:42.112Z,98320.50
2023-01-18T18:03:28.137Z,98366.75
2023-01-18T18:06:26.044Z,98387.91
2023-01-18T18:09:16.378Z,98376.47
2023-01-18T18:12:02.317Z,98383.47
2023-01-18T18:14:51.224Z,98389.00
2023-01-18T18:17:37.496Z,98369.78
2023-01-18T18:20:23.580Z,98390.19
2023-01-18T18:23:11.565Z,98396.38
2023-01-18T18:25:57.733Z,98401.25
2023-01-18T18:28:43.573Z,98426.81
2023-01-18T18:31:29.662Z,98431.69
2023-01-18T18:34:16.278Z,98427.81
2023-01-18T18:37:03.965Z,98452.53
2023-01-18T18:39:49.669Z,98445.03
2023-01-18T18:42:35.353Z,98454.16
2023-01-18T18:45:21.255Z,98467.72
2023-01-18T18:48:07.008Z,98480.25
2023-01-18T18:50:53.443Z,98493.22
2023-01-18T18:53:39.634Z,98500.75
2023-01-18T18:56:25.863Z,98506.66
2023-01-18T18:59:11.640Z,98502.34
2023-01-18T19:01:58.321Z,98479.59
2023-01-18T19:04:44.916Z,98515.25
2023-01-18T19:07:31.499Z,98523.16
2023-01-18T19:10:18.665Z,98514.03
2023-01-18T19:13:05.924Z,98532.41
2023-01-18T19:15:51.915Z,98500.53
2023-01-18T19:18:37.862Z,98539.78
2023-01-18T19:21:23.456Z,98522.13
2023-01-18T19:24:10.001Z,98550.59
2023-01-18T19:26:55.886Z,98557.06
2023-01-18T19:29:42.075Z,98500.34
2023-01-18T19:32:27.947Z,98563.25
2023-01-18T19:35:14.468Z,98554.97
2023-01-18T19:38:00.878Z,98568.44
2023-01-18T19:40:47.046Z,98559.59
2023-01-18T19:43:32.421Z,98570.91
2023-01-18T19:46:20.412Z,98566.31
2023-01-18T19:49:06.059Z,98547.19
2023-01-18T19:51:53.086Z,98540.44
2023-01-18T19:54:38.777Z,98497.03
2023-01-18T19:57:26.437Z,98560.81
2023-01-18T20:00:12.700Z,98566.16
2023-01-18T20:02:59.042Z,98558.91
2023-01-18T20:05:45.292Z,98572.56
2023-01-18T20:08:31.158Z,98562.34
2023-01-18T20:11:16.741Z,98573.16
2023-01-18T20:14:02.701Z,98566.47
2023-01-18T20:16:48.379Z,98569.69
2023-01-18T20:19:34.617Z,98542.31
2023-01-18T20:22:22.079Z,98558.16
2023-01-18T20:25:08.361Z,98581.00
2023-01-18T20:27:53.996Z,98571.09
2023-01-18T20:30:40.423Z,98551.34
2023-01-18T20:33:26.388Z,98586.81
2023-01-18T20:36:12.446Z,98603.22
2023-01-18T20:38:58.275Z,98630.16
2023-01-18T20:41:45.021Z,98614.72
2023-01-18T20:44:30.562Z,98644.00
2023-01-18T20:47:16.757Z,98582.31
2023-01-18T20:50:03.474Z,98652.84
2023-01-18T20:52:51.166Z,98656.06
2023-01-18T20:55:37.819Z,98637.59
2023-01-18T20:58:23.707Z,98662.84
2023-01-18T21:01:15.712Z,98661.81
2023-01-18T21:04:03.036Z,98683.34
2023-01-18T21:06:49.858Z,98697.41
2023-01-18T21:09:36.135Z,98691.81
2023-01-18T21:12:22.173Z,98685.91
2023-01-18T21:15:09.217Z,98707.19
2023-01-18T21:17:54.700Z,98662.09
2023-01-18T21:20:40.844Z,98690.72
2023-01-18T21:23:27.609Z,98722.69
2023-01-18T21:26:14.773Z,98694.81
2023-01-18T21:29:00.626Z,98710.41
2023-01-18T21:31:46.766Z,98734.53
2023-01-18T21:34:32.597Z,98734.84
2023-01-18T21:37:19.713Z,98698.34
2023-01-18T21:40:06.068Z,98710.25
2023-01-18T21:43:10.895Z,98736.28
2023-01-18T21:45:57.858Z,98751.34
2023-01-18T21:48:43.802Z,98756.47
2023-01-18T21:51:48.083Z,98739.88
2023-01-18T21:54:33.829Z,98743.06
2023-01-18T21:57:21.792Z,98762.38
2023-01-18T22:00:08.955Z,98755.34
2023-01-18T22:02:54.757Z,98752.88
2023-01-18T22:05:41.353Z,98746.13
2023-01-18T22:08:27.350Z,98720.91
2023-01-18T22:11:13.124Z,98745.13
2023-01-18T22:13:58.885Z,98735.16
2023-01-18T22:16:44.783Z,98712.09
2023-01-18T22:19:30.701Z,98682.56
2023-01-18T22:22:16.501Z,98708.88
2023-01-18T22:25:02.501Z,98741.34
2023-01-18T22:27:49.013Z,98713.72
2023-01-18T22:30:34.645Z,98735.16
2023-01-18T22:33:20.850Z,98746.78
2023-01-18T22:36:06.512Z,98746.28
2023-01-18T22:38:54.378Z,98754.84
2023-01-18T22:41:41.519Z,98766.47
2023-01-18T22:44:27.227Z,98769.16
2023-01-18T22:47:12.735Z,98771.88
2023-01-18T22:49:59.167Z,98780.22
2023-01-18T22:52:44.723Z,98764.63
2023-01-18T22:55:30.593Z,98777.88
2023-01-18T22:58:16.491Z,98801.28
2023-01-18T23:01:02.607Z,98792.69
2023-01-18T23:03:50.269Z,98800.78
2023-01-18T23:06:45.871Z,98810.97
2023-01-18T23:09:31.642Z,98822.59
2023-01-18T23:12:17.710Z,98818.31
2023-01-18T23:15:22.033Z,98820.78
2023-01-18T23:18:08.490Z,98799.00
2023-01-18T23:20:58.317Z,98818.84
2023-01-18T23:23:44.466Z,98826.63
2023-01-18T23:26:30.028Z,98838.75
2023-01-18T23:29:16.225Z,98833.34
2023-01-18T23:32:02.045Z,98833.38
2023-01-18T23:34:47.934Z,98836.34
2023-01-18T23:37:33.378Z,98824.72
2023-01-18T23:40:38.277Z,98828.81
2023-01-18T23:43:42.103Z,98819.63
2023-01-18T23:46:46.834Z,98794.16
2023-01-18T23:49:51.146Z,98849.75
2023-01-18T23:52:55.500Z,98840.81
2023-01-18T23:55:41.505Z,98848.13
2023-01-18T23:58:27.925Z,98794.94
